Terminal Aerodrome Forecast
Issued by NWS

Home | Current Version | Previous Version | Text Only | Print | Product List | Glossary Off
Versions: 1 2 3 4 5 6 7 8 9 10 11 12 13 14 15 16 17 18 19 20 21 22 23 24 25 26 27 28 29 30 31 32 33 34 35 36 37 38 39 40

473
FTUS43 KGRB 271725
TAFATW
TAF
KATW 271725Z 2718/2818 27009G16KT P6SM SCT060 SCT200
     FM280200 20006KT P6SM SCT250
     FM281200 18011G18KT P6SM BKN080 PROB30 2812/2815 6SM -TSRA
      SCT040CB OVC080
     FM281500 18014G23KT P6SM -TSRA OVC029CB
      TEMPO 2815/2818 3SM TSRA OVC025CB=

USA.gov is the U.S. government's official web portal to all federal, state and local government web resources and services.